createdAt,value
2019-01-08T00:00:54.929Z,100362.89
2019-01-08T00:03:26.760Z,100354.57
2019-01-08T00:05:57.480Z,100335.86
2019-01-08T00:08:29.440Z,100327.02
2019-01-08T00:11:01.297Z,100310.39
2019-01-08T00:13:32.865Z,100311.55
2019-01-08T00:16:04.409Z,100307.48
2019-01-08T00:18:36.060Z,100301.20
2019-01-08T00:21:07.774Z,100297.29
2019-01-08T00:23:39.778Z,100288.81
2019-01-08T00:26:11.567Z,100281.48
2019-01-08T00:28:43.586Z,100266.76
2019-01-08T00:31:15.309Z,100269.63
2019-01-08T00:33:46.885Z,100269.63
2019-01-08T00:36:18.753Z,100269.47
2019-01-08T00:38:50.305Z,100270.47
2019-01-08T00:41:22.402Z,100271.83
2019-01-08T00:43:54.293Z,100267.59
2019-01-08T00:46:25.836Z,100258.91
2019-01-08T00:48:57.386Z,100245.00
2019-01-08T00:51:29.060Z,100240.41
2019-01-08T00:54:00.708Z,100230.06
2019-01-08T00:56:31.489Z,100219.87
2019-01-08T00:59:03.617Z,100215.79
2019-01-08T01:01:35.370Z,100193.07
2019-01-08T01:04:07.025Z,100193.07
2019-01-08T01:06:38.778Z,100202.83
2019-01-08T01:09:09.465Z,100195.55
2019-01-08T01:11:41.446Z,100192.84
2019-01-08T01:14:13.312Z,100183.80
2019-01-08T01:16:46.301Z,100166.81
2019-01-08T01:19:17.995Z,100159.23
2019-01-08T01:21:49.778Z,100159.37
2019-01-08T01:24:20.584Z,100156.98
2019-01-08T01:26:52.356Z,100136.89
2019-01-08T01:29:24.065Z,100136.89
2019-01-08T01:31:55.790Z,100133.80
2019-01-08T01:34:26.469Z,100132.30
2019-01-08T01:36:58.265Z,100123.32
2019-01-08T01:39:29.831Z,100120.06
2019-01-08T01:42:14.691Z,100109.19
2019-01-08T01:44:45.441Z,100102.40
2019-01-08T01:47:17.464Z,100096.77
2019-01-08T01:49:49.749Z,100093.20
2019-01-08T01:52:21.705Z,100075.02
2019-01-08T01:54:52.655Z,100072.97
2019-01-08T01:57:24.367Z,100060.42
2019-01-08T01:59:56.318Z,100060.42
2019-01-08T02:02:27.874Z,100063.30
2019-01-08T02:04:59.687Z,100058.00
2019-01-08T02:07:30.480Z,100050.23
2019-01-08T02:10:02.313Z,100037.70
2019-01-08T02:12:33.841Z,100026.69
2019-01-08T02:15:06.070Z,100021.05
2019-01-08T02:17:37.760Z,100005.95
2019-01-08T02:20:09.757Z,100011.08
2019-01-08T02:22:40.476Z,100006.83
2019-01-08T02:25:12.308Z,99999.16
2019-01-08T02:27:44.307Z,100002.55
2019-01-08T02:30:16.075Z,99997.46
2019-01-08T02:32:48.302Z,99987.28
2019-01-08T02:35:19.842Z,99989.34
2019-01-08T02:37:51.584Z,99972.38
2019-01-08T02:40:23.738Z,99954.97
2019-01-08T02:42:54.631Z,99954.97
2019-01-08T02:45:25.497Z,99966.70
2019-01-08T02:47:57.328Z,99958.31
2019-01-08T02:50:29.323Z,99958.31
2019-01-08T02:53:00.879Z,99958.31
2019-01-08T02:55:32.348Z,99949.53
2019-01-08T02:58:04.317Z,99946.61
2019-01-08T03:00:35.817Z,99938.66
2019-01-08T03:03:07.469Z,99941.00
2019-01-08T03:05:39.305Z,99924.00
2019-01-08T03:08:11.367Z,99924.31
2019-01-08T03:10:43.873Z,99916.47
2019-01-08T03:13:15.657Z,99909.68
2019-01-08T03:15:47.733Z,99910.73
2019-01-08T03:18:18.488Z,99910.73
2019-01-08T03:20:50.270Z,99914.66
2019-01-08T03:23:21.827Z,99908.53
2019-01-08T03:25:53.525Z,99904.63
2019-01-08T03:28:25.274Z,99907.06
2019-01-08T03:30:57.266Z,99900.27
2019-01-08T03:33:28.823Z,99894.91
2019-01-08T03:36:00.502Z,99891.52
2019-01-08T03:38:32.391Z,99885.39
2019-01-08T03:41:04.304Z,99887.87
2019-01-08T03:43:36.061Z,99885.42
2019-01-08T03:46:07.754Z,99870.06
2019-01-08T03:48:38.613Z,99860.02
2019-01-08T03:51:10.825Z,99846.61
2019-01-08T03:53:42.445Z,99846.61
2019-01-08T03:56:14.388Z,99838.59
2019-01-08T03:58:46.628Z,99833.86
2019-01-08T04:01:18.629Z,99825.78
2019-01-08T04:03:50.722Z,99827.06
2019-01-08T04:06:21.476Z,99827.06
2019-01-08T04:08:53.308Z,99801.92
2019-01-08T04:11:24.873Z,99801.92
2019-01-08T04:13:56.446Z,99804.22
2019-01-08T04:16:28.073Z,99801.45
2019-01-08T04:18:59.811Z,99794.84
2019-01-08T04:21:31.758Z,99794.52
2019-01-08T04:24:02.486Z,99794.25
2019-01-08T04:26:34.309Z,99790.70
2019-01-08T04:29:06.308Z,99788.43
2019-01-08T04:31:37.838Z,99788.74
2019-01-08T04:34:09.645Z,99782.30
2019-01-08T04:36:40.728Z,99777.17
2019-01-08T04:39:12.063Z,99769.41
2019-01-08T04:41:43.778Z,99777.42
2019-01-08T04:44:15.401Z,99781.68
2019-01-08T04:46:47.053Z,99771.06
2019-01-08T04:49:18.798Z,99758.52
2019-01-08T04:51:50.349Z,99764.09
2019-01-08T04:54:22.029Z,99762.03
2019-01-08T04:56:54.311Z,99752.13
2019-01-08T04:59:26.376Z,99740.29
2019-01-08T05:01:58.772Z,99729.08
2019-01-08T05:04:29.886Z,99723.25
2019-01-08T05:07:01.352Z,99707.55
2019-01-08T05:09:33.406Z,99712.78
2019-01-08T05:12:05.330Z,99711.94
2019-01-08T05:14:36.908Z,99717.23
2019-01-08T05:17:08.746Z,99704.70
2019-01-08T05:19:39.511Z,99706.77
2019-01-08T05:22:11.310Z,99697.95
2019-01-08T05:24:42.989Z,99696.81
2019-01-08T05:27:14.786Z,99690.72
2019-01-08T05:29:46.278Z,99685.47
2019-01-08T05:32:18.074Z,99681.34
2019-01-08T05:34:49.749Z,99671.97
2019-01-08T05:37:20.618Z,99677.80
2019-01-08T05:39:52.648Z,99663.29
2019-01-08T05:42:24.345Z,99650.41
2019-01-08T05:44:55.881Z,99650.41
2019-01-08T05:47:27.800Z,99649.58
2019-01-08T05:49:59.414Z,99643.97
2019-01-08T05:52:31.760Z,99637.48
2019-01-08T05:55:03.413Z,99631.78
2019-01-08T05:57:35.313Z,99628.55
2019-01-08T06:00:16.120Z,99626.53
2019-01-08T06:02:41.074Z,99626.22
2019-01-08T06:05:12.787Z,99620.48
2019-01-08T06:07:43.471Z,99615.54
2019-01-08T06:10:15.369Z,99614.31
2019-01-08T06:12:47.057Z,99608.39
2019-01-08T06:15:18.782Z,99607.65
2019-01-08T06:17:49.461Z,99612.59
2019-01-08T06:20:21.322Z,99612.33
2019-01-08T06:22:53.068Z,99605.84
2019-01-08T06:25:24.795Z,99598.52
2019-01-08T06:27:56.354Z,99589.88
2019-01-08T06:30:28.048Z,99582.23
2019-01-08T06:32:59.728Z,99575.64
2019-01-08T06:35:30.649Z,99569.87
2019-01-08T06:38:02.397Z,99550.23
2019-01-08T06:40:34.325Z,99550.23
2019-01-08T06:43:05.813Z,99549.96
2019-01-08T06:45:37.490Z,99552.16
2019-01-08T06:48:09.074Z,99540.38
2019-01-08T06:50:40.815Z,99541.55
2019-01-08T06:53:12.473Z,99532.83
2019-01-08T06:55:44.073Z,99527.76
2019-01-08T06:58:15.783Z,99521.70
2019-01-08T07:00:46.757Z,99526.27
2019-01-08T07:03:17.649Z,99512.20
2019-01-08T07:05:49.368Z,99505.65
2019-01-08T07:11:05.373Z,99503.00
2019-01-08T07:13:37.084Z,99501.95
2019-01-08T07:16:08.783Z,99503.30
2019-01-08T07:18:40.794Z,99511.45
2019-01-08T07:21:11.954Z,99501.58
2019-01-08T07:23:43.715Z,99495.63
2019-01-08T07:26:14.511Z,99491.33
2019-01-08T07:31:22.641Z,99490.16
2019-01-08T07:33:54.770Z,99484.07
2019-01-08T07:36:25.779Z,99484.07
2019-01-08T07:38:57.782Z,99479.28
2019-01-08T07:41:28.603Z,99473.45
2019-01-08T07:43:59.663Z,99471.66
2019-01-08T07:46:30.457Z,99467.95
2019-01-08T07:49:02.297Z,99463.39
2019-01-08T07:51:33.845Z,99461.16
2019-01-08T07:54:05.592Z,99451.06
2019-01-08T07:56:37.317Z,99452.30
2019-01-08T07:59:10.302Z,99452.30
2019-01-08T08:01:41.867Z,99449.27
2019-01-08T08:04:13.373Z,99454.06
2019-01-08T08:06:45.056Z,99439.95
2019-01-08T08:09:16.785Z,99433.03
2019-01-08T08:11:49.274Z,99434.64
2019-01-08T08:14:20.879Z,99428.84
2019-01-08T08:16:52.789Z,99430.52
2019-01-08T08:19:23.626Z,99419.15
2019-01-08T08:21:55.350Z,99426.96
2019-01-08T08:24:27.123Z,99426.96
2019-01-08T08:26:59.349Z,99426.01
2019-01-08T08:29:30.874Z,99424.47
2019-01-08T08:32:02.797Z,99429.80
2019-01-08T08:34:33.501Z,99417.05
2019-01-08T08:37:05.275Z,99415.69
2019-01-08T08:39:36.899Z,99399.83
2019-01-08T08:42:08.732Z,99407.34
2019-01-08T08:44:39.478Z,99402.62
2019-01-08T08:47:11.409Z,99393.92
2019-01-08T08:49:43.786Z,99397.48
2019-01-08T08:52:14.575Z,99396.72
2019-01-08T08:54:46.753Z,99389.73
2019-01-08T08:57:17.512Z,99389.73
2019-01-08T08:59:49.303Z,99383.66
2019-01-08T09:02:20.824Z,99371.73
2019-01-08T09:04:52.577Z,99374.56
2019-01-08T09:07:24.380Z,99366.41
2019-01-08T09:09:56.367Z,99366.41
2019-01-08T09:12:28.062Z,99364.34
2019-01-08T09:14:59.774Z,99354.18
2019-01-08T09:17:30.466Z,99354.41
2019-01-08T09:20:02.310Z,99350.75
2019-01-08T09:22:33.881Z,99353.05
2019-01-08T09:25:05.737Z,99343.95
2019-01-08T09:27:36.479Z,99343.95
2019-01-08T09:30:09.751Z,99337.38
2019-01-08T09:32:40.493Z,99338.74
2019-01-08T09:35:12.319Z,99320.06
2019-01-08T09:37:43.838Z,99320.06
2019-01-08T09:40:15.617Z,99322.67
2019-01-08T09:42:47.749Z,99304.78
2019-01-08T09:45:18.598Z,99304.78
2019-01-08T09:47:50.434Z,99300.17
2019-01-08T09:50:22.306Z,99300.17
2019-01-08T09:52:54.421Z,99285.75
2019-01-08T09:55:26.032Z,99282.02
2019-01-08T09:57:57.815Z,99279.68
2019-01-08T10:00:29.552Z,99264.43
2019-01-08T10:03:01.646Z,99248.09
2019-01-08T10:05:33.380Z,99253.75
2019-01-08T10:08:05.526Z,99253.75
2019-01-08T10:10:37.310Z,99251.89
2019-01-08T10:13:08.850Z,99247.41
2019-01-08T10:15:40.727Z,99243.74
2019-01-08T10:18:12.485Z,99239.25
2019-01-08T10:20:44.305Z,99239.78
2019-01-08T10:23:16.323Z,99224.50
2019-01-08T10:25:47.854Z,99211.73
2019-01-08T10:28:19.749Z,99198.48
2019-01-08T10:30:50.719Z,99203.50
2019-01-08T10:33:21.670Z,99184.48
2019-01-08T10:35:52.698Z,99192.94
2019-01-08T10:38:23.667Z,99166.39
2019-01-08T10:40:55.374Z,99163.89
2019-01-08T10:43:27.357Z,99157.09
2019-01-08T10:45:59.319Z,99141.20
2019-01-08T10:48:31.311Z,99144.23
2019-01-08T10:51:02.917Z,99128.55
2019-01-08T10:53:34.740Z,99116.33
2019-01-08T10:56:05.471Z,99115.39
2019-01-08T10:58:38.933Z,99102.33
2019-01-08T11:01:10.783Z,99098.45
2019-01-08T11:03:41.621Z,99098.97
2019-01-08T11:06:13.438Z,99088.72
2019-01-08T11:08:45.406Z,99088.72
2019-01-08T11:11:17.065Z,99079.02
2019-01-08T11:13:49.034Z,99087.78
2019-01-08T11:16:20.758Z,99090.61
2019-01-08T11:18:51.618Z,99088.72
2019-01-08T11:21:23.306Z,99079.33
2019-01-08T11:23:55.267Z,99079.33
2019-01-08T11:26:26.901Z,99078.91
2019-01-08T11:28:58.778Z,99082.35
2019-01-08T11:31:29.628Z,99081.41
2019-01-08T11:34:01.374Z,99071.06
2019-01-08T11:36:33.448Z,99071.06
2019-01-08T11:39:06.034Z,99067.00
2019-01-08T11:41:37.709Z,99071.57
2019-01-08T11:44:08.951Z,99059.98
2019-01-08T11:49:11.306Z,99049.74
2019-01-08T11:51:42.866Z,99049.74
2019-01-08T11:54:14.719Z,99051.10
2019-01-08T11:56:45.485Z,99034.80
2019-01-08T11:59:17.266Z,99043.25
2019-01-08T12:01:56.971Z,99043.05
2019-01-08T12:04:22.750Z,99038.34
2019-01-08T12:06:53.440Z,99024.33
2019-01-08T12:09:25.391Z,99026.22
2019-01-08T12:11:57.053Z,99023.07
2019-01-08T12:14:28.771Z,99021.84
2019-01-08T12:16:59.446Z,99014.95
2019-01-08T12:19:31.299Z,99019.42
2019-01-08T12:22:02.822Z,99024.13
2019-01-08T12:24:34.595Z,99028.63
2019-01-08T12:27:05.668Z,99012.85
2019-01-08T12:29:36.464Z,99016.83
2019-01-08T12:32:08.309Z,99007.63
2019-01-08T12:34:39.857Z,99008.55
2019-01-08T12:37:11.406Z,99013.36
2019-01-08T12:39:43.308Z,99018.92
2019-01-08T12:42:14.889Z,99004.91
2019-01-08T12:44:46.593Z,99002.29
2019-01-08T12:47:18.602Z,98993.53
2019-01-08T12:49:50.322Z,99010.44
2019-01-08T12:52:22.297Z,99010.44
2019-01-08T12:54:53.897Z,99014.21
2019-01-08T12:57:25.384Z,99010.03
2019-01-08T12:59:57.039Z,99005.32
2019-01-08T13:02:29.261Z,98993.53
2019-01-08T13:05:01.302Z,98990.58
2019-01-08T13:07:32.817Z,98999.89
2019-01-08T13:10:04.418Z,99000.92
2019-01-08T13:12:36.288Z,98993.53
2019-01-08T13:15:08.373Z,98985.15
2019-01-08T13:17:40.147Z,99002.41
2019-01-08T13:20:11.841Z,99005.76
2019-01-08T13:22:43.848Z,98999.46
2019-01-08T13:25:15.385Z,99001.16
2019-01-08T13:27:47.040Z,98996.13
2019-01-08T13:30:18.733Z,98994.77
2019-01-08T13:32:49.487Z,98986.20
2019-01-08T13:35:21.268Z,98993.10
2019-01-08T13:37:52.857Z,98995.30
2019-01-08T13:40:24.406Z,98990.69
2019-01-08T13:42:56.693Z,98997.16
2019-01-08T13:45:27.481Z,98987.45
2019-01-08T13:47:59.574Z,98990.89
2019-01-08T13:50:31.300Z,98971.98
2019-01-08T13:53:02.858Z,98971.98
2019-01-08T13:55:34.752Z,98989.95
2019-01-08T13:58:05.437Z,98982.95
2019-01-08T14:00:37.059Z,98990.80
2019-01-08T14:03:08.709Z,98990.70
2019-01-08T14:05:39.447Z,98995.08
2019-01-08T14:08:11.068Z,99008.47
2019-01-08T14:10:42.769Z,98997.59
2019-01-08T14:13:13.465Z,98995.41
2019-01-08T14:15:45.410Z,99013.99
2019-01-08T14:18:17.482Z,99016.42
2019-01-08T14:20:49.365Z,99017.99
2019-01-08T14:23:20.896Z,99017.99
2019-01-08T14:25:52.754Z,99007.63
2019-01-08T14:28:23.453Z,99008.47
2019-01-08T14:30:55.256Z,99002.00
2019-01-08T14:33:27.398Z,99008.28
2019-01-08T14:35:59.367Z,99000.42
2019-01-08T14:38:31.065Z,99015.17
2019-01-08T14:41:02.749Z,99009.94
2019-01-08T14:43:34.348Z,99005.66
2019-01-08T14:46:06.369Z,99003.14
2019-01-08T14:48:38.041Z,99005.66
2019-01-08T14:51:09.774Z,99005.34
2019-01-08T14:53:41.584Z,98997.59
2019-01-08T14:56:12.480Z,99000.43
2019-01-08T14:58:44.451Z,99015.27
2019-01-08T15:01:16.061Z,98997.91
2019-01-08T15:03:47.697Z,99006.92
2019-01-08T15:06:18.484Z,99008.53
2019-01-08T15:08:50.297Z,99003.59
2019-01-08T15:11:21.975Z,99007.96
2019-01-08T15:13:53.732Z,98998.83
2019-01-08T15:16:25.334Z,99010.32
2019-01-08T15:18:57.344Z,99007.48
2019-01-08T15:21:28.948Z,99021.89
2019-01-08T15:24:00.745Z,99012.19
2019-01-08T15:26:32.374Z,99017.39
2019-01-08T15:29:04.238Z,99021.14
2019-01-08T15:31:35.845Z,99017.24
2019-01-08T15:34:07.577Z,99010.67
2019-01-08T15:36:39.304Z,99003.27
2019-01-08T15:39:11.031Z,99003.27
2019-01-08T15:41:43.301Z,99004.16
2019-01-08T15:44:15.373Z,99007.68
2019-01-08T15:46:47.515Z,99017.97
2019-01-08T15:49:19.742Z,99012.05
2019-01-08T15:51:51.369Z,99012.05
2019-01-08T15:54:23.042Z,99014.38
2019-01-08T15:56:54.780Z,99013.77
2019-01-08T15:59:26.350Z,99016.64
2019-01-08T16:01:58.045Z,99016.78
2019-01-08T16:04:29.749Z,99010.48
2019-01-08T16:07:00.646Z,99008.84
2019-01-08T16:09:32.340Z,99002.17
2019-01-08T16:12:04.426Z,99002.17
2019-01-08T16:14:36.070Z,99001.98
2019-01-08T16:17:07.768Z,99007.43
2019-01-08T16:19:38.450Z,99009.75
2019-01-08T16:22:10.318Z,99002.03
2019-01-08T16:24:42.360Z,98998.39
2019-01-08T16:27:14.064Z,98999.46
2019-01-08T16:29:46.098Z,99001.16
2019-01-08T16:32:18.302Z,99001.50
2019-01-08T16:34:50.068Z,98992.33
2019-01-08T16:37:21.760Z,98995.47
2019-01-08T16:39:52.453Z,99000.17
2019-01-08T16:42:24.053Z,99000.25
2019-01-08T16:44:55.774Z,98990.83
2019-01-08T16:47:27.777Z,98991.26
2019-01-08T16:49:58.480Z,98994.41
2019-01-08T16:52:30.273Z,98990.66
2019-01-08T16:55:01.870Z,98990.99
2019-01-08T16:57:33.690Z,98990.06
2019-01-08T17:00:06.431Z,98984.83
2019-01-08T17:02:38.346Z,98991.42
2019-01-08T17:05:10.314Z,98980.32
2019-01-08T17:07:41.897Z,98984.40
2019-01-08T17:10:13.650Z,98981.25
2019-01-08T17:12:45.778Z,98976.64
2019-01-08T17:15:16.491Z,98976.64
2019-01-08T17:17:48.300Z,98987.61
2019-01-08T17:20:19.854Z,98982.38
2019-01-08T17:22:51.785Z,98990.86
2019-01-08T17:25:22.875Z,98993.91
2019-01-08T17:27:55.279Z,98984.80
2019-01-08T17:30:26.881Z,98983.44
2019-01-08T17:32:58.729Z,98984.23
2019-01-08T17:35:30.346Z,98991.92
2019-01-08T17:38:02.545Z,98989.70
2019-01-08T17:40:34.297Z,98970.95
2019-01-08T17:43:05.936Z,98970.95
2019-01-08T17:45:37.842Z,98994.98
2019-01-08T17:48:09.749Z,98991.09
2019-01-08T17:50:40.442Z,98991.71
2019-01-08T17:53:12.328Z,98992.16
2019-01-08T17:55:43.914Z,99013.33
2019-01-08T17:59:04.877Z,99009.78
2019-01-08T18:01:43.757Z,99001.73
2019-01-08T18:04:16.072Z,99013.81
2019-01-08T18:06:47.753Z,98999.31
2019-01-08T18:09:18.458Z,99011.95
2019-01-08T18:11:50.065Z,99004.63
2019-01-08T18:14:21.794Z,99013.59
2019-01-08T18:16:54.281Z,99006.21
2019-01-08T18:19:25.861Z,99006.21
2019-01-08T18:21:58.065Z,99009.62
2019-01-08T18:24:29.710Z,99018.03
2019-01-08T18:27:00.455Z,99011.72
2019-01-08T18:29:32.310Z,99008.63
2019-01-08T18:32:04.065Z,99010.39
2019-01-08T18:34:35.811Z,99005.95
2019-01-08T18:37:07.736Z,99005.57
2019-01-08T18:39:38.463Z,99009.02
2019-01-08T18:42:11.407Z,99020.39
2019-01-08T18:44:43.625Z,99009.75
2019-01-08T18:47:15.375Z,99018.31
2019-01-08T18:49:47.069Z,99018.31
2019-01-08T18:52:19.064Z,99013.64
2019-01-08T18:54:50.764Z,99020.66
2019-01-08T18:57:21.515Z,99027.77
2019-01-08T18:59:53.301Z,99012.91
2019-01-08T19:02:24.865Z,99015.09
2019-01-08T19:04:56.395Z,99006.11
2019-01-08T19:07:28.015Z,99014.70
2019-01-08T19:10:11.775Z,99017.41
2019-01-08T19:12:43.407Z,99011.05
2019-01-08T19:15:15.803Z,99010.95
2019-01-08T19:17:47.618Z,99012.84
2019-01-08T19:20:19.417Z,99027.35
2019-01-08T19:22:51.072Z,99027.35
2019-01-08T19:25:22.802Z,99035.63
2019-01-08T19:27:54.374Z,99034.89
2019-01-08T19:30:26.066Z,99044.84
2019-01-08T19:32:57.850Z,99031.02
2019-01-08T19:35:31.762Z,99029.55
2019-01-08T19:38:02.996Z,99035.79
2019-01-08T19:40:34.896Z,99036.19
2019-01-08T19:43:06.768Z,99048.52
2019-01-08T19:45:37.448Z,99057.84
2019-01-08T19:48:09.129Z,99055.84
2019-01-08T19:50:40.742Z,99050.08
2019-01-08T19:53:11.471Z,99054.39
2019-01-08T19:55:43.351Z,99046.03
2019-01-08T19:58:15.365Z,99053.13
2019-01-08T20:00:47.027Z,99050.84
2019-01-08T20:03:18.741Z,99053.89
2019-01-08T20:05:49.439Z,99050.97
2019-01-08T20:08:21.282Z,99059.15
2019-01-08T20:10:53.364Z,99065.73
2019-01-08T20:13:25.304Z,99053.52
2019-01-08T20:15:56.833Z,99046.91
2019-01-08T20:18:28.630Z,99041.81
2019-01-08T20:21:00.394Z,99038.97
2019-01-08T20:23:33.325Z,99038.97
2019-01-08T20:26:05.258Z,99035.95
2019-01-08T20:28:36.866Z,99040.53
2019-01-08T20:31:08.374Z,99048.55
2019-01-08T20:33:40.058Z,99046.14
2019-01-08T20:36:11.870Z,99050.51
2019-01-08T20:38:43.799Z,99047.08
2019-01-08T20:41:15.741Z,99058.75
2019-01-08T20:43:47.779Z,99043.78
2019-01-08T20:46:18.446Z,99047.65
2019-01-08T20:48:50.044Z,99045.66
2019-01-08T20:51:21.779Z,99047.65
2019-01-08T20:53:53.740Z,99050.48
2019-01-08T20:56:24.468Z,99052.57
2019-01-08T20:58:56.688Z,99059.23
2019-01-08T21:01:28.747Z,99052.14
2019-01-08T21:03:59.497Z,99052.14
2019-01-08T21:06:31.293Z,99051.73
2019-01-08T21:09:04.307Z,99048.47
2019-01-08T21:11:35.886Z,99054.84
2019-01-08T21:14:07.754Z,99058.00
2019-01-08T21:16:38.443Z,99047.14
2019-01-08T21:19:10.301Z,99074.08
2019-01-08T21:21:42.747Z,99057.34
2019-01-08T21:24:13.599Z,99058.09
2019-01-08T21:26:45.361Z,99061.53
2019-01-08T21:29:17.027Z,99061.53
2019-01-08T21:31:49.042Z,99072.06
2019-01-08T21:34:20.996Z,99073.55
2019-01-08T21:36:52.734Z,99075.81
2019-01-08T21:39:23.532Z,99081.73
2019-01-08T21:41:55.301Z,99076.00
2019-01-08T21:44:26.994Z,99077.78
2019-01-08T21:46:59.293Z,99080.61
2019-01-08T21:49:30.895Z,99087.89
2019-01-08T21:52:02.733Z,99081.60
2019-01-08T21:54:34.370Z,99081.19
2019-01-08T21:57:06.064Z,99078.66
2019-01-08T21:59:38.390Z,99092.88
2019-01-08T22:02:10.059Z,99079.72
2019-01-08T22:04:41.777Z,99079.49
2019-01-08T22:07:13.771Z,99076.55
2019-01-08T22:09:45.734Z,99081.90
2019-01-08T22:12:17.602Z,99083.67
2019-01-08T22:14:49.370Z,99073.42
2019-01-08T22:17:21.289Z,99073.42
2019-01-08T22:19:52.793Z,99078.97
2019-01-08T22:22:24.736Z,99087.52
2019-01-08T22:24:55.664Z,99085.63
2019-01-08T22:27:26.428Z,99084.46
2019-01-08T22:29:58.049Z,99087.06
2019-01-08T22:32:29.749Z,99096.97
2019-01-08T22:35:02.367Z,99103.04
2019-01-08T22:37:33.822Z,99102.17
2019-01-08T22:40:05.604Z,99113.44
2019-01-08T22:42:37.450Z,99109.67
2019-01-08T22:45:09.613Z,99111.78
2019-01-08T22:47:41.341Z,99102.65
2019-01-08T22:50:13.057Z,99102.65
2019-01-08T22:52:44.786Z,99102.34
2019-01-08T22:55:15.594Z,99107.06
2019-01-08T22:57:47.620Z,99104.11
2019-01-08T23:00:38.437Z,99078.17
2019-01-08T23:03:10.361Z,99078.17
2019-01-08T23:05:42.078Z,99101.77
2019-01-08T23:08:13.741Z,99103.59
2019-01-08T23:10:44.471Z,99101.63
2019-01-08T23:13:16.299Z,99098.93
2019-01-08T23:15:49.294Z,99102.47
2019-01-08T23:18:20.880Z,99097.45
2019-01-08T23:20:52.763Z,99098.75
2019-01-08T23:23:23.440Z,99109.30
2019-01-08T23:25:55.293Z,99104.89
2019-01-08T23:28:26.881Z,99103.64
2019-01-08T23:30:58.374Z,99119.27
2019-01-08T23:33:30.495Z,99122.51
2019-01-08T23:36:02.299Z,99119.44
2019-01-08T23:38:33.845Z,99127.98
2019-01-08T23:41:05.598Z,99117.13
2019-01-08T23:43:37.294Z,99116.55
2019-01-08T23:46:08.833Z,99116.55
2019-01-08T23:48:40.618Z,99117.86
2019-01-08T23:51:12.346Z,99098.86
2019-01-08T23:53:47.045Z,99098.86
2019-01-08T23:56:19.298Z,99112.42
2019-01-08T23:58:51.037Z,99110.54
